ASN logo
ASN Wikibase Occurrence # 215291
Last updated: 24 September 2018
This information is added by users of ASN. Neither ASN nor the Flight Safety Foundation are responsible for the completeness or correctness of this information. If you feel this information is incomplete or incorrect, you can submit corrected information.

Date:12-SEP-2018
Time:04:11 LT
Type:Silhouette image of generic B738 model; specific model in this crash may look slightly different
Boeing 737-866 (WL)
Owner/operator:EgyptAir
Registration: SU-GCO
C/n / msn: 35561/2369
Fatalities:Fatalities: 0 / Occupants:
Other fatalities:0
Aircraft damage: Minor
Location:Beograd-Nikola Tesla Airport (BEG/LYBE) -   Serbia
Phase: Landing
Nature:Ferry/positioning
Departure airport:Cairo International Airport (CAI/HECA)
Destination airport:Beograd-Nikola Tesla Airport (BEG/LYBE)
Narrative:
EgyptAir flight MS3100 burst several tires on landing at Belgrade's Nikola Tesla Airport in Serbia.
The aircraft, a Boeing 737-800, landed on runway 30 and came to rest with at least three of the four main gear tires having been ruptured/deflated.

Weather about the incident time (0211Z):
LYBE 120230Z 19004KT CAVOK 18/14 Q1023 NOSIG
LYBE 120200Z 22003KT CAVOK 18/14 Q1023 NOSIG

Sources:

https://www.blic.rs/vesti/drustvo/foto-prve-slike-ostecenog-aviona-ovo-je-egipatska-letelica-koja-je-blokirala-aerodrom/2pxgwqs


Revision history:

Date/timeContributorUpdates
12-Sep-2018 06:33 misat2004 Added
12-Sep-2018 06:35 harro Updated [Aircraft type, Cn, Operator, Total fatalities, Other fatalities, Location, Departure airport, Destination airport, Narrative]
12-Sep-2018 06:39 harro Updated [Time, Nature, Damage, Narrative]
12-Sep-2018 06:48 harro Updated [Embed code]

Corrections or additions? ... Edit this accident description